createdAt,value
2022-09-28T00:03:04.399Z,0
2022-09-28T00:05:31.220Z,0
2022-09-28T00:07:55.408Z,0
2022-09-28T00:10:19.508Z,0
2022-09-28T00:12:45.635Z,0
2022-09-28T00:15:10.781Z,0
2022-09-28T00:17:51.066Z,0
2022-09-28T00:24:53.674Z,0
2022-09-28T00:27:34.738Z,0
2022-09-28T00:29:46.182Z,0
2022-09-28T00:34:36.128Z,0
2022-09-28T00:41:54.351Z,0
2022-09-28T00:46:46.039Z,0
2022-09-28T00:54:04.333Z,0
2022-09-28T00:56:54.722Z,0
2022-09-28T01:01:24.786Z,0
2022-09-28T01:13:34.185Z,0
2022-09-28T01:19:32.835Z,0
2022-09-28T01:20:51.548Z,0
2022-09-28T01:23:14.852Z,0
2022-09-28T01:25:39.706Z,0
2022-09-28T01:28:05.797Z,0
2022-09-28T01:30:32.406Z,0
2022-09-28T01:37:50.171Z,0
2022-09-28T01:40:16.263Z,0
2022-09-28T01:42:49.022Z,0
2022-09-28T01:45:08.471Z,0
2022-09-28T01:47:34.550Z,0
2022-09-28T01:50:00.903Z,0
2022-09-28T01:52:30.909Z,0
2022-09-28T01:57:19.193Z,0
2022-09-28T02:00:16.985Z,0
2022-09-28T02:02:10.155Z,0
2022-09-28T02:04:36.492Z,0
2022-09-28T02:07:02.327Z,0
2022-09-28T02:12:11.230Z,0
2022-09-28T02:14:21.658Z,0
2022-09-28T02:16:49.006Z,0
2022-09-28T02:19:36.986Z,0
2022-09-28T02:21:41.426Z,0
2022-09-28T02:24:04.551Z,0
2022-09-28T02:26:36.967Z,0
2022-09-28T02:31:21.348Z,0
2022-09-28T02:33:46.442Z,0
2022-09-28T02:36:20.431Z,0
2022-09-28T02:38:38.030Z,0
2022-09-28T02:41:12.348Z,0
2022-09-28T02:48:26.418Z,0
2022-09-28T02:53:14.276Z,0
2022-09-28T02:55:40.322Z,0
2022-09-28T02:58:06.481Z,0
2022-09-28T03:00:32.797Z,0
2022-09-28T03:03:00.872Z,0
2022-09-28T03:05:25.321Z,0
2022-09-28T03:07:50.085Z,0
2022-09-28T03:10:17.045Z,0
2022-09-28T03:12:42.011Z,0
2022-09-28T03:17:34.204Z,0
2022-09-28T03:20:56.687Z,0
2022-09-28T03:22:26.414Z,0
2022-09-28T03:24:52.472Z,0
2022-09-28T03:27:19.128Z,0
2022-09-28T03:29:44.665Z,0
2022-09-28T03:32:10.833Z,0
2022-09-28T03:34:35.902Z,0
2022-09-28T03:37:01.842Z,0
2022-09-28T03:39:26.423Z,0
2022-09-28T03:41:51.539Z,0
2022-09-28T03:44:17.659Z,0
2022-09-28T03:46:43.455Z,0
2022-09-28T03:49:09.520Z,0
2022-09-28T03:51:35.676Z,0
2022-09-28T03:54:20.351Z,0
2022-09-28T03:56:28.371Z,0
2022-09-28T03:58:54.194Z,0
2022-09-28T04:01:20.312Z,0
2022-09-28T04:03:46.106Z,0
2022-09-28T04:11:09.866Z,0
2022-09-28T04:13:29.837Z,0
2022-09-28T04:15:56.834Z,0
2022-09-28T04:18:20.707Z,0
2022-09-28T04:20:47.432Z,0
2022-09-28T04:28:05.097Z,0
2022-09-28T04:30:31.241Z,0
2022-09-28T04:32:58.163Z,0
2022-09-28T04:35:24.520Z,0
2022-09-28T04:40:02.370Z,0
2022-09-28T04:40:16.781Z,0
2022-09-28T04:42:40.969Z,0
2022-09-28T04:45:06.106Z,0
2022-09-28T04:47:40.754Z,0
2022-09-28T04:49:58.010Z,0
2022-09-28T04:52:25.069Z,0
2022-09-28T04:54:48.232Z,0
2022-09-28T04:57:14.334Z,0
2022-09-28T04:59:40.450Z,0
2022-09-28T05:02:07.138Z,0
2022-09-28T05:06:58.761Z,0
2022-09-28T05:09:25.448Z,0
2022-09-28T05:11:50.941Z,0
2022-09-28T05:14:16.988Z,0
2022-09-28T05:16:43.077Z,0
2022-09-28T05:19:09.183Z,0
2022-09-28T05:21:35.267Z,0
2022-09-28T05:24:01.389Z,0
2022-09-28T05:26:26.482Z,0
2022-09-28T05:29:29.957Z,5
2022-09-28T05:31:18.677Z,5
2022-09-28T05:33:44.798Z,11
2022-09-28T05:36:10.873Z,5
2022-09-28T05:38:36.958Z,5
2022-09-28T05:41:03.085Z,5
2022-09-28T05:43:29.142Z,5
2022-09-28T05:45:59.960Z,5
2022-09-28T05:48:21.467Z,16
2022-09-28T05:50:47.506Z,16
2022-09-28T05:53:12.204Z,22
2022-09-28T05:55:38.029Z,28
2022-09-28T05:58:04.925Z,22
2022-09-28T06:00:30.205Z,22
2022-09-28T06:07:48.146Z,22
2022-09-28T06:10:14.538Z,16
2022-09-28T06:12:44.739Z,16
2022-09-28T06:15:07.302Z,28
2022-09-28T06:19:57.694Z,61
2022-09-28T06:22:27.404Z,39
2022-09-28T06:24:48.861Z,33
2022-09-28T06:27:14.272Z,45
2022-09-28T06:29:39.138Z,39
2022-09-28T06:32:05.507Z,45
2022-09-28T06:34:32.139Z,61
2022-09-28T06:36:57.703Z,78
2022-09-28T06:39:23.753Z,78
2022-09-28T06:42:07.722Z,78
2022-09-28T06:44:16.060Z,90
2022-09-28T06:46:41.761Z,90
2022-09-28T06:49:27.476Z,95
2022-09-28T06:51:33.968Z,90
2022-09-28T06:53:59.171Z,84
2022-09-28T06:56:24.226Z,78
2022-09-28T06:58:50.636Z,84
2022-09-28T07:01:17.515Z,84
2022-09-28T07:03:44.800Z,78
2022-09-28T07:06:09.741Z,78
2022-09-28T07:08:34.684Z,84
2022-09-28T07:15:52.964Z,135
2022-09-28T07:18:19.082Z,135
2022-09-28T07:20:45.268Z,129
2022-09-28T07:23:11.431Z,157
2022-09-28T07:25:36.425Z,163
2022-09-28T07:28:01.650Z,168
2022-09-28T07:30:26.645Z,180
2022-09-28T07:32:51.734Z,185
2022-09-28T07:35:17.834Z,191
2022-09-28T07:37:43.971Z,202
2022-09-28T07:40:10.021Z,247
2022-09-28T07:42:36.131Z,287
2022-09-28T07:45:02.202Z,287
2022-09-28T07:47:28.339Z,276
2022-09-28T07:49:54.384Z,265
2022-09-28T07:52:20.471Z,271
2022-09-28T07:54:46.581Z,299
2022-09-28T07:57:11.697Z,304
2022-09-28T07:59:36.798Z,287
2022-09-28T08:02:02.904Z,299
2022-09-28T08:04:29.002Z,299
2022-09-28T08:06:55.119Z,282
2022-09-28T08:09:21.185Z,271
2022-09-28T08:11:47.306Z,327
2022-09-28T08:14:13.390Z,344
2022-09-28T08:16:39.504Z,344
2022-09-28T08:19:05.565Z,332
2022-09-28T08:21:31.780Z,282
2022-09-28T08:23:56.806Z,271
2022-09-28T08:26:21.903Z,299
2022-09-28T08:28:48.037Z,163
2022-09-28T08:31:14.085Z,129
2022-09-28T08:33:40.233Z,168
2022-09-28T08:36:06.277Z,202
2022-09-28T08:38:32.370Z,168
2022-09-28T08:40:58.479Z,129
2022-09-28T08:43:24.588Z,140
2022-09-28T08:45:50.686Z,106
2022-09-28T08:48:16.754Z,191
2022-09-28T08:50:42.917Z,332
2022-09-28T08:53:08.939Z,462
2022-09-28T08:55:35.093Z,394
2022-09-28T08:58:00.169Z,389
2022-09-28T09:00:26.244Z,434
2022-09-28T09:02:52.375Z,417
2022-09-28T09:05:18.441Z,355
2022-09-28T09:07:44.574Z,332
2022-09-28T09:10:10.629Z,451
2022-09-28T09:12:36.779Z,530
2022-09-28T09:15:01.862Z,519
2022-09-28T09:17:26.969Z,451
2022-09-28T09:19:52.143Z,361
2022-09-28T09:22:17.230Z,456
2022-09-28T09:24:42.335Z,513
2022-09-28T09:27:07.437Z,473
2022-09-28T09:29:33.553Z,467
2022-09-28T09:31:58.634Z,501
2022-09-28T09:34:24.799Z,473
2022-09-28T09:36:50.845Z,536
2022-09-28T09:39:16.935Z,536
2022-09-28T09:41:43.043Z,542
2022-09-28T09:44:09.218Z,519
2022-09-28T09:46:35.231Z,513
2022-09-28T09:49:01.339Z,525
2022-09-28T09:51:27.437Z,513
2022-09-28T09:53:53.511Z,473
2022-09-28T09:56:19.639Z,490
2022-09-28T09:58:45.686Z,484
2022-09-28T10:01:11.842Z,484
2022-09-28T10:03:36.974Z,462
2022-09-28T10:06:02.994Z,445
2022-09-28T10:08:29.130Z,434
2022-09-28T10:10:55.197Z,400
2022-09-28T10:13:21.326Z,282
2022-09-28T10:15:46.410Z,344
2022-09-28T10:18:11.511Z,439
2022-09-28T10:20:36.688Z,406
2022-09-28T10:23:01.765Z,445
2022-09-28T10:25:27.844Z,372
2022-09-28T10:27:53.978Z,293
2022-09-28T10:30:20.034Z,349
2022-09-28T10:32:46.175Z,383
2022-09-28T10:35:12.234Z,282
2022-09-28T10:37:38.406Z,372
2022-09-28T10:40:04.441Z,484
2022-09-28T10:44:56.620Z,344
2022-09-28T10:47:22.708Z,327
2022-09-28T10:49:48.836Z,428
2022-09-28T10:52:14.898Z,422
2022-09-28T10:54:40.003Z,490
2022-09-28T10:57:06.109Z,519
2022-09-28T10:59:32.202Z,496
2022-09-28T11:01:58.313Z,467
2022-09-28T11:04:24.377Z,467
2022-09-28T11:06:50.509Z,479
2022-09-28T11:09:16.571Z,417
2022-09-28T11:11:42.716Z,434
2022-09-28T11:14:07.824Z,462
2022-09-28T11:16:32.913Z,434
2022-09-28T11:18:59.090Z,400
2022-09-28T11:21:24.129Z,501
2022-09-28T11:23:49.233Z,547
2022-09-28T11:26:15.381Z,558
2022-09-28T11:28:41.428Z,525
2022-09-28T11:31:07.573Z,507
2022-09-28T11:33:33.606Z,501
2022-09-28T11:35:59.767Z,467
2022-09-28T11:38:25.809Z,456
2022-09-28T11:40:51.891Z,507
2022-09-28T11:43:18.013Z,479
2022-09-28T11:45:44.089Z,496
2022-09-28T11:48:10.213Z,525
2022-09-28T11:50:36.299Z,536
2022-09-28T11:53:02.415Z,519
2022-09-28T11:55:27.561Z,473
2022-09-28T11:57:53.586Z,536
2022-09-28T12:00:19.716Z,484
2022-09-28T12:02:45.777Z,473
2022-09-28T12:05:11.901Z,439
2022-09-28T12:07:37.971Z,456
2022-09-28T12:10:04.101Z,445
2022-09-28T12:12:29.182Z,484
2022-09-28T12:14:54.309Z,530
2022-09-28T12:17:20.424Z,530
2022-09-28T12:19:45.514Z,536
2022-09-28T12:22:10.614Z,525
2022-09-28T12:24:36.754Z,609
2022-09-28T12:27:02.805Z,654
2022-09-28T12:29:28.947Z,654
2022-09-28T12:31:55.013Z,660
2022-09-28T12:34:21.173Z,643
2022-09-28T12:36:47.207Z,643
2022-09-28T12:39:13.285Z,643
2022-09-28T12:41:39.399Z,637
2022-09-28T12:44:05.474Z,615
2022-09-28T12:46:31.624Z,620
2022-09-28T12:48:57.684Z,643
2022-09-28T12:51:23.798Z,637
2022-09-28T12:53:48.911Z,637
2022-09-28T12:56:14.971Z,643
2022-09-28T12:58:41.087Z,626
2022-09-28T13:01:07.168Z,587
2022-09-28T13:03:33.286Z,581
2022-09-28T13:05:59.364Z,564
2022-09-28T13:08:25.488Z,581
2022-09-28T13:10:50.587Z,575
2022-09-28T13:13:15.695Z,575
2022-09-28T13:15:41.818Z,553
2022-09-28T13:18:07.885Z,490
2022-09-28T13:20:33.055Z,383
2022-09-28T13:22:58.131Z,383
2022-09-28T13:25:24.211Z,411
2022-09-28T13:27:50.333Z,327
2022-09-28T13:30:16.399Z,422
2022-09-28T13:32:42.567Z,513
2022-09-28T13:35:08.587Z,473
2022-09-28T13:37:34.779Z,473
2022-09-28T13:40:00.794Z,462
2022-09-28T13:42:26.881Z,445
2022-09-28T13:44:52.983Z,519
2022-09-28T13:47:19.064Z,428
2022-09-28T13:49:45.204Z,411
2022-09-28T13:52:11.264Z,473
2022-09-28T13:54:36.438Z,479
2022-09-28T13:57:02.473Z,456
2022-09-28T13:59:28.560Z,422
2022-09-28T14:01:54.693Z,479
2022-09-28T14:04:20.808Z,490
2022-09-28T14:06:46.878Z,507
2022-09-28T14:09:12.948Z,513
2022-09-28T14:11:38.116Z,519
2022-09-28T14:14:03.196Z,536
2022-09-28T14:16:28.292Z,525
2022-09-28T14:18:53.504Z,513
2022-09-28T14:21:19.532Z,519
2022-09-28T14:23:45.599Z,519
2022-09-28T14:26:11.735Z,525
2022-09-28T14:28:37.787Z,530
2022-09-28T14:31:03.927Z,536
2022-09-28T14:33:29.970Z,665
2022-09-28T14:35:56.099Z,796
2022-09-28T14:38:22.202Z,490
2022-09-28T14:40:48.253Z,547
2022-09-28T14:43:14.376Z,620
2022-09-28T14:45:40.451Z,451
2022-09-28T14:48:06.576Z,688
2022-09-28T14:50:31.650Z,484
2022-09-28T14:52:57.750Z,564
2022-09-28T14:55:23.866Z,637
2022-09-28T14:57:49.933Z,677
2022-09-28T15:00:16.059Z,807
2022-09-28T15:02:42.131Z,603
2022-09-28T15:05:08.267Z,490
2022-09-28T15:07:33.347Z,394
2022-09-28T15:09:58.498Z,361
2022-09-28T15:12:24.583Z,394
2022-09-28T15:14:49.687Z,536
2022-09-28T15:17:14.783Z,451
2022-09-28T15:19:39.955Z,411
2022-09-28T15:22:05.031Z,377
2022-09-28T15:24:31.109Z,349
2022-09-28T15:26:57.241Z,400
2022-09-28T15:29:23.301Z,467
2022-09-28T15:31:49.439Z,338
2022-09-28T15:34:15.484Z,327
2022-09-28T15:36:41.637Z,400
2022-09-28T15:39:07.674Z,316
2022-09-28T15:41:33.772Z,282
2022-09-28T15:43:59.881Z,276
2022-09-28T15:46:25.967Z,265
2022-09-28T15:48:52.089Z,253
2022-09-28T15:51:18.150Z,247
2022-09-28T15:53:43.324Z,241
2022-09-28T15:56:09.383Z,241
2022-09-28T15:58:35.461Z,236
2022-09-28T16:01:01.671Z,225
2022-09-28T16:03:27.646Z,225
2022-09-28T16:05:53.775Z,213
2022-09-28T16:08:19.827Z,196
2022-09-28T16:10:45.013Z,185
2022-09-28T16:13:11.062Z,174
2022-09-28T16:15:36.181Z,174
2022-09-28T16:18:01.339Z,163
2022-09-28T16:20:27.384Z,163
2022-09-28T16:22:53.476Z,163
2022-09-28T16:25:19.582Z,163
2022-09-28T16:27:45.671Z,146
2022-09-28T16:30:11.780Z,123
2022-09-28T16:32:37.855Z,112
2022-09-28T16:35:03.987Z,118
2022-09-28T16:37:30.057Z,112
2022-09-28T16:39:56.183Z,101
2022-09-28T16:42:22.245Z,95
2022-09-28T16:44:48.404Z,78
2022-09-28T16:47:14.438Z,67
2022-09-28T16:49:39.540Z,56
2022-09-28T16:52:05.673Z,50
2022-09-28T16:54:31.749Z,50
2022-09-28T16:56:57.876Z,39
2022-09-28T16:59:23.924Z,33
2022-09-28T17:01:50.076Z,28
2022-09-28T17:04:16.140Z,16
2022-09-28T17:06:41.234Z,11
2022-09-28T17:09:06.407Z,11
2022-09-28T17:11:32.504Z,11
2022-09-28T17:13:58.698Z,5
2022-09-28T17:16:24.775Z,5
2022-09-28T17:18:50.873Z,0
2022-09-28T17:21:17.008Z,0
2022-09-28T17:23:43.071Z,0
2022-09-28T17:26:09.184Z,0
2022-09-28T17:28:35.266Z,0
2022-09-28T17:31:01.390Z,0
2022-09-28T17:33:27.462Z,0
2022-09-28T17:35:53.547Z,0
2022-09-28T17:38:19.652Z,0
2022-09-28T17:40:44.754Z,0
2022-09-28T17:43:10.866Z,0
2022-09-28T17:45:36.939Z,0
2022-09-28T17:48:03.103Z,0
2022-09-28T17:50:29.144Z,0
2022-09-28T17:52:55.269Z,0
2022-09-28T17:55:21.343Z,0
2022-09-28T17:57:46.438Z,0
2022-09-28T18:00:11.601Z,0
2022-09-28T18:02:36.550Z,0
2022-09-28T18:05:01.791Z,0
2022-09-28T18:07:26.972Z,0
2022-09-28T18:09:52.051Z,0
2022-09-28T18:12:18.125Z,0
2022-09-28T18:14:44.240Z,0
2022-09-28T18:17:10.279Z,0
2022-09-28T18:19:36.454Z,0
2022-09-28T18:22:02.533Z,0
2022-09-28T18:24:28.668Z,0
2022-09-28T18:26:54.727Z,0
2022-09-28T18:29:20.801Z,0
2022-09-28T18:31:46.908Z,0
2022-09-28T18:34:12.980Z,0
2022-09-28T18:36:39.087Z,0
2022-09-28T18:39:05.187Z,0
2022-09-28T18:41:30.345Z,0
2022-09-28T18:43:56.402Z,0
2022-09-28T18:46:22.477Z,0
2022-09-28T18:48:48.615Z,0
2022-09-28T18:51:14.689Z,0
2022-09-28T18:53:40.816Z,0
2022-09-28T18:56:06.879Z,0
2022-09-28T18:58:32.051Z,0
2022-09-28T19:00:57.115Z,0
2022-09-28T19:03:22.231Z,0
2022-09-28T19:05:47.310Z,0
2022-09-28T19:08:13.464Z,0
2022-09-28T19:10:39.553Z,0
2022-09-28T19:13:05.654Z,0
2022-09-28T19:15:31.565Z,0
2022-09-28T19:17:57.863Z,0
2022-09-28T19:20:23.922Z,0
2022-09-28T19:22:50.059Z,0
2022-09-28T19:25:16.081Z,0
2022-09-28T19:27:42.251Z,0
2022-09-28T19:30:08.285Z,0
2022-09-28T19:32:34.394Z,0
2022-09-28T19:35:00.519Z,0
2022-09-28T19:37:25.583Z,0
2022-09-28T19:39:51.756Z,0
2022-09-28T19:42:17.793Z,0
2022-09-28T19:44:43.891Z,0
2022-09-28T19:47:09.982Z,0
2022-09-28T19:49:35.976Z,0
2022-09-28T19:52:02.170Z,0
2022-09-28T19:54:27.305Z,0
2022-09-28T19:56:52.407Z,0
2022-09-28T19:59:18.514Z,0
2022-09-28T20:01:44.598Z,0
2022-09-28T20:04:10.771Z,0
2022-09-28T20:06:36.813Z,0
2022-09-28T20:09:02.771Z,0
2022-09-28T20:11:28.980Z,0
2022-09-28T20:13:55.115Z,0
2022-09-28T20:16:21.200Z,0
2022-09-28T20:18:47.321Z,0
2022-09-28T20:21:13.345Z,0
2022-09-28T20:23:39.461Z,0
2022-09-28T20:26:05.416Z,0
2022-09-28T20:28:30.677Z,0
2022-09-28T20:30:56.794Z,0
2022-09-28T20:33:22.856Z,0
2022-09-28T20:35:49.018Z,0
2022-09-28T20:38:15.057Z,0
2022-09-28T20:40:41.220Z,0
2022-09-28T20:43:07.272Z,0
2022-09-28T20:45:32.351Z,0
2022-09-28T20:47:57.504Z,0
2022-09-28T20:50:22.605Z,0
2022-09-28T20:52:47.721Z,0
2022-09-28T20:55:12.878Z,0
2022-09-28T20:57:37.970Z,0
2022-09-28T21:00:04.033Z,0
2022-09-28T21:02:30.173Z,0
2022-09-28T21:04:56.229Z,0
2022-09-28T21:07:22.375Z,0
2022-09-28T21:09:48.446Z,0
2022-09-28T21:12:14.592Z,0
2022-09-28T21:14:40.613Z,0
2022-09-28T21:17:06.728Z,0
2022-09-28T21:19:32.819Z,0
2022-09-28T21:21:58.897Z,0
2022-09-28T21:24:25.028Z,0
2022-09-28T21:29:17.238Z,0
2022-09-28T21:31:42.313Z,0
2022-09-28T21:34:08.495Z,0
2022-09-28T21:36:34.540Z,0
2022-09-28T21:39:00.623Z,0
2022-09-28T21:41:26.729Z,0
2022-09-28T21:43:52.796Z,0
2022-09-28T21:46:18.928Z,0
2022-09-28T21:48:43.991Z,0
2022-09-28T21:51:09.139Z,0
2022-09-28T21:53:35.248Z,0
2022-09-28T21:56:01.329Z,0
2022-09-28T21:58:27.443Z,0
2022-09-28T22:00:53.498Z,0
2022-09-28T22:03:19.653Z,0
2022-09-28T22:05:45.694Z,0
2022-09-28T22:08:11.843Z,0
2022-09-28T22:10:37.760Z,0
2022-09-28T22:13:04.061Z,0
2022-09-28T22:15:30.100Z,0
2022-09-28T22:17:56.152Z,0
2022-09-28T22:20:22.288Z,0
2022-09-28T22:22:47.251Z,0
2022-09-28T22:25:13.332Z,0
2022-09-28T22:30:05.667Z,0
2022-09-28T22:32:31.688Z,0
2022-09-28T22:34:57.719Z,0
2022-09-28T22:37:24.068Z,0
2022-09-28T22:39:50.049Z,0
2022-09-28T22:42:15.105Z,0
2022-09-28T22:44:40.290Z,0
2022-09-28T22:47:06.290Z,0
2022-09-28T22:49:32.485Z,0
2022-09-28T22:51:58.436Z,0
2022-09-28T22:54:24.627Z,0
2022-09-28T22:56:50.775Z,0
2022-09-28T22:59:16.869Z,0
2022-09-28T23:01:42.818Z,0
2022-09-28T23:04:08.917Z,0
2022-09-28T23:06:35.029Z,0
2022-09-28T23:09:01.136Z,0
2022-09-28T23:11:27.295Z,0
2022-09-28T23:13:53.347Z,0
2022-09-28T23:16:18.529Z,0
2022-09-28T23:18:44.544Z,0
2022-09-28T23:21:10.677Z,0
2022-09-28T23:23:36.736Z,0
2022-09-28T23:26:02.840Z,0
2022-09-28T23:28:28.902Z,0
2022-09-28T23:30:55.043Z,0
2022-09-28T23:33:20.182Z,0
2022-09-28T23:35:45.238Z,0
2022-09-28T23:38:10.358Z,0
2022-09-28T23:40:35.507Z,0
2022-09-28T23:43:00.595Z,0
2022-09-28T23:45:25.724Z,0
2022-09-28T23:47:51.841Z,0
2022-09-28T23:50:17.874Z,0
2022-09-28T23:52:44.058Z,0
2022-09-28T23:55:10.125Z,0
2022-09-28T23:57:36.185Z,0
